Pine Grove Furnace, Pennsylvania
Current Conditions -  °F | °C
As of 8:53 AM on Saturday 22 Nov 2014 (Local Time) from KTHV Reporting Station
Clear Clear  
Wind Chill: 28°   Ceiling: Unl
Heat Index: 28°   Visibility: 10mi
Dew Point: 17°   Wind: 3mph
Humidity: 63%   Direction: 180°S
Pressure: 30.46"   Gusts: NA
Location:  40.0362°N, 77.1908°W
Report Text: KTHV 221353Z AUTO 18003KT 10SM CLR M02/M08 A3046 RMK AO2 SLP326 T10221083
Loading
Personal Weather Stations






























Interactive Weather Map New forecast layout! Learn more

10-Day Weather Forecast

Advertisements
Track Severe Weather on mobile